LIPZLIBD

Guest
Details From LIPZ - Venezia Tessera
To LIBD - Bari Palese Macchie
Flight Number -
Tags generated
Created
Modified
Stats Distance 333 nm / 616 km
Max Altitude 35,000 ft / 10,668 m
Waypoints 7
Social Downloads 0
Likes 0
Share VATSIM

Download

Looking for another format? Having issues loading an existing format? Contact us
Advertisement - Login to hide

Notes

Basic altitude profile: - Ascent Rate: 2500ft/min - Ascent Speed: 250kts - Cruise Altitude: 35000ft - Cruise Speed: 420kts - Descent Rate: 1500ft/min - Descent Speed: 250kts Options: - Use NATs: yes - Use PACOTS: yes - Use low airways: yes - Use high airways: no

Route

LIPZ LANLI L612 POLYP LIBD

ID Type Via Altitude Latitude Longitude Leg Dist Tot Dist Heading (true) Name
O LIPZ APT - 0 ft / 0 m 45.50479˚ 12.34969˚ - 0 nm - Venezia Tessera
LANLI FIX - 35,000 ft / 10,668 m 43.95722˚ 13.18056˚ 99 nm 99 nm 159° / 159° -
ANC VOR L612 (AWY-LO) 35,000 ft / 10,668 m 43.58639˚ 13.47111˚ 25 nm 125 nm 150° / 151° ANCONA VOR-DME
NUTRO FIX L612 (AWY-LO) 35,000 ft / 10,668 m 43.16000˚ 14.14917˚ 39 nm 164 nm 131° / 131° -
ARPIK FIX L612 (AWY-LO) 28,000 ft / 8,534 m 42.74694˚ 14.79222˚ 37 nm 201 nm 131° / 131° -
POLYP FIX L612 (AWY-LO) 22,800 ft / 6,949 m 42.47833˚ 15.20250˚ 24 nm 226 nm 132° / 132° -
O LIBD APT - 0 ft / 0 m 41.13787˚ 16.75832˚ 106 nm 332 nm 139° / 140° Bari Palese Macchie

Altitude Profile

Advertisement - Login to hide

Weather


0- 5 10 15 20 25 30 35+ Temperature / ° C

Clouds and Precipitation
Forecast for 2018-06-23 12:00 UTC. Updated 42 minutes ago

Ground ~20,000 ft ~40,000 ft Winds

LIPZ

Details ICAO LIPZ (VCE)
Name Venezia Tessera
Region Italy
Timezone Europe/Rome (UTC+2.0)
Stats Elevation 7 ft / 2 m (AMSL)
Location 45.504791° 12.349691°
Runways 2
Magnetic Variation 3.239° E

METAR

LIPZ 230950Z 10006KT 060V150 CAVOK 22/09 Q1021 NOSIG

Decode

TAF

TAF LIPZ 230500Z 2306/2412 06012KT 9999 SCT030 BECMG 2308/2310 15010KT BECMG 2316/2318 VRB05KT BECMG 2406/2408 15010KT

Decode

Departure Runways

ID Width Length Bearing (true) Bearing (mag) Surface Threshold Offset Overrun Length
04L 148 ft / 45 m 9,112 ft / 2,777 m 42.01° 38.77° Asphalt 312 ft / 95 m 0 ft / 0 m
04R 148 ft / 45 m 10,834 ft / 3,302 m 41.99° 38.75° Asphalt 0 ft / 0 m 0 ft / 0 m
22L 148 ft / 45 m 10,834 ft / 3,302 m 222.01° 218.77° Asphalt 0 ft / 0 m 0 ft / 0 m
22R 148 ft / 45 m 9,112 ft / 2,777 m 222.02° 218.78° Asphalt 0 ft / 0 m 0 ft / 0 m

LIBD

Details ICAO LIBD (BRI)
Name Bari Palese Macchie
Region Italy
Timezone Europe/Rome (UTC+2.0)
Stats Elevation 177 ft / 54 m (AMSL)
Location 41.137865° 16.758318°
Runways 1
Magnetic Variation 3.791° E

METAR

LIBD 230950Z 35012G22KT 9999 FEW020 23/13 Q1017

Decode

TAF

TAF LIBD 230500Z 2306/2406 35012KT CAVOK= TAF LICA 230500Z 2306/2406 VRB04KT 9999 SCT030 BECMG 2308/2310 27010KT TEMPO 2310/2316 TSRA BECMG 2315/2318 08010KT

Decode

Destination Runways

ID Width Length Bearing (true) Bearing (mag) Surface Threshold Offset Overrun Length
07 148 ft / 45 m 9,262 ft / 2,823 m 69.39° 65.60° Asphalt 1,257 ft / 383 m 0 ft / 0 m
25 148 ft / 45 m 9,262 ft / 2,823 m 249.42° 245.63° Asphalt 0 ft / 0 m 194 ft / 59 m

Approach Navaids

Runway Type Ident Frequency Range Bearing (true) Bearing (mag) Slope Elevation
07 Localiser BAP 111.35 MHz 18 nm / 33 km 69.25° 65.46° - 177 ft / 54 m (AMSL)
07 Glidescope BAP 111.35 MHz 10 nm / 19 km 69.25° 65.46° 3.32° 177 ft / 54 m (AMSL)
07 DME BAP 111.35 MHz 18 nm / 33 km - - - 183 ft / 56 m (AMSL)

Popular Alternatives